No particular awareness of the weather is required.    There are no Weather-warnings


Meteo18 Weather Cam more information Meteo18 Weather Cam


Thunder radar more information blitzortung!


Rain radar more information rain snow radar


Visit our other weather sites:

Template documentation
and downloads

And another site



Weather Underground History page Text

Daily Summary for April 20, 2017 Units:  Both    English   Metric
« Previous Day
Next Day »
Daily Weekly Monthly Yearly Custom
  High: Low: Average:
Temperature: TemperatureC °F /  -17.8 °C -0.6 °F /  -18.1 °C 6.2 °F /  -14.3 °C
Dew Point: DewpointC °F /  -17.8 °C -5.3 °F /  -20.7 °C -3.4 °F /  -19.7 °C
Humidity: Humidity % 35 % 52 %
Wind Speed: WindSpeedKMH mph /  0 km/h - 10 mph /  16.1 km/h
Wind Gust: WindSpeedGustKMH mph /  0 km/h - -
Wind:- - NE
Pressure: PressurehPa in /  0 hPa 1032.4 in /  34957.1 hPa -
Precipitation: 0.0 in /  0 mm    
Historical Graphs
 
 
Tabular Data for April 20, 2017
Time Temperature Dew Point Pressure Wind Wind Speed Wind Gust Humidity Rainfall Rate (Hourly)
TemperatureC °F /  -17.8 °C DewpointC °F /  -17.8 °C PressurehPa in /  0 hPa Calm     Humidity % HourlyPrecipMM in /  0 mm
00:02 3.9 °F /  -15.6 °C -3.6 °F /  -19.8 °C 1033.1 in /  34980.8 hPa NE 6.4 mph /  10.3 km/h 9.7 mph /  15.6 km/h 58 % 0.0 in /  0 mm
00:07 3.9 °F /  -15.6 °C -3.6 °F /  -19.8 °C 1033.1 in /  34980.8 hPa NE 6.4 mph /  10.3 km/h 11.3 mph /  18.2 km/h 58 % 0.0 in /  0 mm
00:12 3.8 °F /  -15.7 °C -3.5 °F /  -19.7 °C 1033.1 in /  34980.8 hPa NNE 6.4 mph /  10.3 km/h 11.3 mph /  18.2 km/h 59 % 0.0 in /  0 mm
00:17 3.8 °F /  -15.7 °C -3.5 °F /  -19.7 °C 1033.1 in /  34980.8 hPa NNE 8.0 mph /  12.9 km/h 11.3 mph /  18.2 km/h 59 % 0.0 in /  0 mm
00:22 3.7 °F /  -15.7 °C -3.6 °F /  -19.8 °C 1033.1 in /  34980.8 hPa NE 4.8 mph /  7.7 km/h 12.9 mph /  20.8 km/h 59 % 0.0 in /  0 mm
00:27 3.6 °F /  -15.8 °C -3.4 °F /  -19.7 °C 1033.1 in /  34980.8 hPa NE 3.2 mph /  5.1 km/h 12.9 mph /  20.8 km/h 60 % 0.0 in /  0 mm
00:32 3.5 °F /  -15.8 °C -3.5 °F /  -19.7 °C 1033.1 in /  34980.8 hPa NE 3.2 mph /  5.1 km/h 12.9 mph /  20.8 km/h 60 % 0.0 in /  0 mm
00:37 3.4 °F /  -15.9 °C -3.4 °F /  -19.7 °C 1033.1 in /  34980.8 hPa ENE 6.4 mph /  10.3 km/h 12.9 mph /  20.8 km/h 61 % 0.0 in /  0 mm
00:42 3.3 °F /  -15.9 °C -3.5 °F /  -19.7 °C 1033.1 in /  34980.8 hPa NE 3.2 mph /  5.1 km/h 12.9 mph /  20.8 km/h 61 % 0.0 in /  0 mm
00:47 3.2 °F /  -16 °C -3.6 °F /  -19.8 °C 1033.4 in /  34990.9 hPa NE 6.4 mph /  10.3 km/h 12.9 mph /  20.8 km/h 61 % 0.0 in /  0 mm
00:52 3.1 °F /  -16.1 °C -3.7 °F /  -19.8 °C 1033.4 in /  34990.9 hPa NE 3.2 mph /  5.1 km/h 12.9 mph /  20.8 km/h 61 % 0.0 in /  0 mm
00:57 2.9 °F /  -16.2 °C -3.9 °F /  -19.9 °C 1033.4 in /  34990.9 hPa NE 4.8 mph /  7.7 km/h 8.0 mph /  12.9 km/h 61 % 0.0 in /  0 mm
01:02 3.1 °F /  -16.1 °C -3.7 °F /  -19.8 °C 1033.4 in /  34990.9 hPa NNE 3.2 mph /  5.1 km/h 8.0 mph /  12.9 km/h 61 % 0.0 in /  0 mm
01:07 3.1 °F /  -16.1 °C -3.9 °F /  -19.9 °C 1033.4 in /  34990.9 hPa NE 4.8 mph /  7.7 km/h 11.3 mph /  18.2 km/h 60 % 0.0 in /  0 mm
01:12 3.1 °F /  -16.1 °C -3.9 °F /  -19.9 °C 1033.4 in /  34990.9 hPa NE 4.8 mph /  7.7 km/h 11.3 mph /  18.2 km/h 60 % 0.0 in /  0 mm
01:17 3.0 °F /  -16.1 °C -4.0 °F /  -20 °C 1033.4 in /  34990.9 hPa NE 1.6 mph /  2.6 km/h 8.0 mph /  12.9 km/h 60 % 0.0 in /  0 mm
01:22 2.9 °F /  -16.2 °C -4.1 °F /  -20.1 °C 1033.4 in /  34990.9 hPa NE 1.6 mph /  2.6 km/h 8.0 mph /  12.9 km/h 60 % 0.0 in /  0 mm
01:32 2.9 °F /  -16.2 °C -4.1 °F /  -20.1 °C 1033.4 in /  34990.9 hPa NNE 3.2 mph /  5.1 km/h 8.0 mph /  12.9 km/h 60 % 0.0 in /  0 mm
01:37 2.8 °F /  -16.2 °C -4.2 °F /  -20.1 °C 1033.4 in /  34990.9 hPa NE 4.8 mph /  7.7 km/h 11.3 mph /  18.2 km/h 60 % 0.0 in /  0 mm
01:42 2.8 °F /  -16.2 °C -4.2 °F /  -20.1 °C 1033.4 in /  34990.9 hPa ENE 1.6 mph /  2.6 km/h 11.3 mph /  18.2 km/h 60 % 0.0 in /  0 mm
01:47 2.8 °F /  -16.2 °C -4.2 °F /  -20.1 °C 1033.4 in /  34990.9 hPa Calm   11.3 mph /  18.2 km/h 60 % 0.0 in /  0 mm
01:52 2.8 °F /  -16.2 °C -4.2 °F /  -20.1 °C 1033.4 in /  34990.9 hPa Calm   11.3 mph /  18.2 km/h 60 % 0.0 in /  0 mm
01:57 2.7 °F /  -16.3 °C -4.3 °F /  -20.2 °C 1033.4 in /  34990.9 hPa Calm   8.0 mph /  12.9 km/h 60 % 0.0 in /  0 mm
02:02 2.4 °F /  -16.4 °C -4.4 °F /  -20.2 °C 1033.4 in /  34990.9 hPa NE 3.2 mph /  5.1 km/h 8.0 mph /  12.9 km/h 61 % 0.0 in /  0 mm
02:07 2.2 °F /  -16.6 °C -4.3 °F /  -20.2 °C 1033.4 in /  34990.9 hPa NE 3.2 mph /  5.1 km/h 6.4 mph /  10.3 km/h 62 % 0.0 in /  0 mm
02:12 2.2 °F /  -16.6 °C -4.3 °F /  -20.2 °C 1033.4 in /  34990.9 hPa NE 4.8 mph /  7.7 km/h 6.4 mph /  10.3 km/h 62 % 0.0 in /  0 mm
02:17 2.2 °F /  -16.6 °C -4.3 °F /  -20.2 °C 1033.4 in /  34990.9 hPa NNE 4.8 mph /  7.7 km/h 11.3 mph /  18.2 km/h 62 % 0.0 in /  0 mm
02:22 2.2 °F /  -16.6 °C -4.3 °F /  -20.2 °C 1033.4 in /  34990.9 hPa NNE 3.2 mph /  5.1 km/h 11.3 mph /  18.2 km/h 62 % 0.0 in /  0 mm
02:32 2.1 °F /  -16.6 °C -4.4 °F /  -20.2 °C 1033.4 in /  34990.9 hPa Calm   11.3 mph /  18.2 km/h 62 % 0.0 in /  0 mm
02:37 2.0 °F /  -16.7 °C -4.5 °F /  -20.3 °C 1033.4 in /  34990.9 hPa NNE 3.2 mph /  5.1 km/h 6.4 mph /  10.3 km/h 62 % 0.0 in /  0 mm
02:47 1.7 °F /  -16.8 °C -4.4 °F /  -20.2 °C 1033.4 in /  34990.9 hPa North 1.6 mph /  2.6 km/h 3.2 mph /  5.1 km/h 64 % 0.0 in /  0 mm
02:52 1.5 °F /  -16.9 °C -4.4 °F /  -20.2 °C 1033.4 in /  34990.9 hPa NNE 1.6 mph /  2.6 km/h 3.2 mph /  5.1 km/h 65 % 0.0 in /  0 mm
03:02 1.3 °F /  -17.1 °C -4.4 °F /  -20.2 °C 1033.4 in /  34990.9 hPa NNE 1.6 mph /  2.6 km/h 6.4 mph /  10.3 km/h 66 % 0.0 in /  0 mm
03:07 1.3 °F /  -17.1 °C -4.4 °F /  -20.2 °C 1033.4 in /  34990.9 hPa NW 1.6 mph /  2.6 km/h 6.4 mph /  10.3 km/h 66 % 0.0 in /  0 mm
03:12 1.2 °F /  -17.1 °C -4.4 °F /  -20.2 °C 1033.4 in /  34990.9 hPa NNW 3.2 mph /  5.1 km/h 6.4 mph /  10.3 km/h 66 % 0.0 in /  0 mm
03:17 1.2 °F /  -17.1 °C -4.4 °F /  -20.2 °C 1033.4 in /  34990.9 hPa NNE 6.4 mph /  10.3 km/h 9.7 mph /  15.6 km/h 66 % 0.0 in /  0 mm
03:22 1.1 °F /  -17.2 °C -4.5 °F /  -20.3 °C 1033.4 in /  34990.9 hPa NE 4.8 mph /  7.7 km/h 9.7 mph /  15.6 km/h 66 % 0.0 in /  0 mm
03:27 1.1 °F /  -17.2 °C -4.5 °F /  -20.3 °C 1033.4 in /  34990.9 hPa North 1.6 mph /  2.6 km/h 8.0 mph /  12.9 km/h 66 % 0.0 in /  0 mm
03:32 1.1 °F /  -17.2 °C -4.5 °F /  -20.3 °C 1033.4 in /  34990.9 hPa ENE 3.2 mph /  5.1 km/h 8.0 mph /  12.9 km/h 66 % 0.0 in /  0 mm
03:37 1.1 °F /  -17.2 °C -4.5 °F /  -20.3 °C 1033.4 in /  34990.9 hPa Calm   9.7 mph /  15.6 km/h 66 % 0.0 in /  0 mm
03:42 1.1 °F /  -17.2 °C -4.5 °F /  -20.3 °C 1033.4 in /  34990.9 hPa Calm   9.7 mph /  15.6 km/h 66 % 0.0 in /  0 mm
03:47 0.9 °F /  -17.3 °C -4.7 °F /  -20.4 °C 1033.4 in /  34990.9 hPa NNE 4.8 mph /  7.7 km/h 8.0 mph /  12.9 km/h 66 % 0.0 in /  0 mm
03:52 0.8 °F /  -17.3 °C -4.6 °F /  -20.3 °C 1033.4 in /  34990.9 hPa Calm   8.0 mph /  12.9 km/h 67 % 0.0 in /  0 mm
03:57 0.8 °F /  -17.3 °C -4.6 °F /  -20.3 °C 1033.4 in /  34990.9 hPa NNE 1.6 mph /  2.6 km/h 6.4 mph /  10.3 km/h 67 % 0.0 in /  0 mm
04:02 0.7 °F /  -17.4 °C -4.5 °F /  -20.3 °C 1033.4 in /  34990.9 hPa Calm   6.4 mph /  10.3 km/h 68 % 0.0 in /  0 mm
04:12 0.6 °F /  -17.4 °C -4.4 °F /  -20.2 °C 1033.4 in /  34990.9 hPa NW 1.6 mph /  2.6 km/h 6.4 mph /  10.3 km/h 69 % 0.0 in /  0 mm
04:17 0.7 °F /  -17.4 °C -4.5 °F /  -20.3 °C 1033.4 in /  34990.9 hPa North 11.3 mph /  18.2 km/h 11.3 mph /  18.2 km/h 68 % 0.0 in /  0 mm
04:22 1.0 °F /  -17.2 °C -4.4 °F /  -20.2 °C 1033.4 in /  34990.9 hPa Calm   11.3 mph /  18.2 km/h 67 % 0.0 in /  0 mm
04:32 1.2 °F /  -17.1 °C -4.7 °F /  -20.4 °C 1033.4 in /  34990.9 hPa NNE 9.7 mph /  15.6 km/h 14.5 mph /  23.3 km/h 65 % 0.0 in /  0 mm
04:37 1.3 °F /  -17.1 °C -4.6 °F /  -20.3 °C 1033.4 in /  34990.9 hPa NNE 14.5 mph /  23.3 km/h 16.1 mph /  25.9 km/h 65 % 0.0 in /  0 mm
04:42 1.2 °F /  -17.1 °C -4.7 °F /  -20.4 °C 1033.4 in /  34990.9 hPa NE 8.0 mph /  12.9 km/h 16.1 mph /  25.9 km/h 65 % 0.0 in /  0 mm
04:47 1.2 °F /  -17.1 °C -4.4 °F /  -20.2 °C 1033.4 in /  34990.9 hPa NE 9.7 mph /  15.6 km/h 17.7 mph /  28.5 km/h 66 % 0.0 in /  0 mm
04:52 1.1 °F /  -17.2 °C -4.5 °F /  -20.3 °C 1033.4 in /  34990.9 hPa NNE 4.8 mph /  7.7 km/h 17.7 mph /  28.5 km/h 66 % 0.0 in /  0 mm
05:02 0.9 °F /  -17.3 °C -4.7 °F /  -20.4 °C 1033.4 in /  34990.9 hPa NE 9.7 mph /  15.6 km/h 17.7 mph /  28.5 km/h 66 % 0.0 in /  0 mm
05:07 0.9 °F /  -17.3 °C -4.7 °F /  -20.4 °C 1033.4 in /  34990.9 hPa NE 8.0 mph /  12.9 km/h 12.9 mph /  20.8 km/h 66 % 0.0 in /  0 mm
05:17 0.8 °F /  -17.3 °C -4.6 °F /  -20.3 °C 1033.4 in /  34990.9 hPa NE 3.2 mph /  5.1 km/h 12.9 mph /  20.8 km/h 67 % 0.0 in /  0 mm
05:22 0.8 °F /  -17.3 °C -4.6 °F /  -20.3 °C 1033.4 in /  34990.9 hPa NE 6.4 mph /  10.3 km/h 12.9 mph /  20.8 km/h 67 % 0.0 in /  0 mm
05:32 0.5 °F /  -17.5 °C -4.7 °F /  -20.4 °C 1033.4 in /  34990.9 hPa NNW 1.6 mph /  2.6 km/h 12.9 mph /  20.8 km/h 68 % 0.0 in /  0 mm
05:42 0.2 °F /  -17.7 °C -4.6 °F /  -20.3 °C 1033.4 in /  34990.9 hPa NNE 4.8 mph /  7.7 km/h 11.3 mph /  18.2 km/h 70 % 0.0 in /  0 mm
05:52 -0.1 °F /  -17.8 °C -4.7 °F /  -20.4 °C 1033.4 in /  34990.9 hPa NE 3.2 mph /  5.1 km/h 9.7 mph /  15.6 km/h 71 % 0.0 in /  0 mm
06:02 -0.2 °F /  -17.9 °C -4.6 °F /  -20.3 °C 1033.4 in /  34990.9 hPa North 1.6 mph /  2.6 km/h 8.0 mph /  12.9 km/h 72 % 0.0 in /  0 mm
06:07 -0.2 °F /  -17.9 °C -4.6 °F /  -20.3 °C 1033.4 in /  34990.9 hPa NE 1.6 mph /  2.6 km/h 8.0 mph /  12.9 km/h 72 % 0.0 in /  0 mm
06:12 -0.3 °F /  -17.9 °C -4.7 °F /  -20.4 °C 1033.7 in /  35001.1 hPa Calm   8.0 mph /  12.9 km/h 72 % 0.0 in /  0 mm
06:17 -0.3 °F /  -17.9 °C -4.5 °F /  -20.3 °C 1033.4 in /  34990.9 hPa Calm   8.0 mph /  12.9 km/h 73 % 0.0 in /  0 mm
06:22 -0.3 °F /  -17.9 °C -4.5 °F /  -20.3 °C 1033.4 in /  34990.9 hPa NNE 1.6 mph /  2.6 km/h 8.0 mph /  12.9 km/h 73 % 0.0 in /  0 mm
06:32 -0.6 °F /  -18.1 °C -4.8 °F /  -20.4 °C 1033.4 in /  34990.9 hPa NNE 6.4 mph /  10.3 km/h 6.4 mph /  10.3 km/h 73 % 0.0 in /  0 mm
06:42 -0.3 °F /  -17.9 °C -4.4 °F /  -20.2 °C 1033.7 in /  35001.1 hPa NNE 6.4 mph /  10.3 km/h 9.7 mph /  15.6 km/h 74 % 0.0 in /  0 mm
06:52 0.1 °F /  -17.7 °C -4.3 °F /  -20.2 °C 1033.7 in /  35001.1 hPa NNE 3.2 mph /  5.1 km/h 11.3 mph /  18.2 km/h 72 % 0.0 in /  0 mm
06:57 -0.1 °F /  -17.8 °C -4.5 °F /  -20.3 °C 1033.7 in /  35001.1 hPa NE 3.2 mph /  5.1 km/h 12.9 mph /  20.8 km/h 72 % 0.0 in /  0 mm
07:02 -0.3 °F /  -17.9 °C -4.5 °F /  -20.3 °C 1033.7 in /  35001.1 hPa North 8.0 mph /  12.9 km/h 12.9 mph /  20.8 km/h 73 % 0.0 in /  0 mm
07:12 -0.1 °F /  -17.8 °C -4.4 °F /  -20.2 °C 1033.7 in /  35001.1 hPa North 1.6 mph /  2.6 km/h 11.3 mph /  18.2 km/h 73 % 0.0 in /  0 mm
07:17 -0.1 °F /  -17.8 °C -4.4 °F /  -20.2 °C 1033.7 in /  35001.1 hPa NNE 4.8 mph /  7.7 km/h 11.3 mph /  18.2 km/h 73 % 0.0 in /  0 mm
07:22 -0.1 °F /  -17.8 °C -4.4 °F /  -20.2 °C 1033.7 in /  35001.1 hPa Calm   11.3 mph /  18.2 km/h 73 % 0.0 in /  0 mm
07:32 0.1 °F /  -17.7 °C -4.2 °F /  -20.1 °C 1034.1 in /  35014.6 hPa NNE 6.4 mph /  10.3 km/h 12.9 mph /  20.8 km/h 73 % 0.0 in /  0 mm
07:42 0.4 °F /  -17.6 °C -4.1 °F /  -20.1 °C 1034.1 in /  35014.6 hPa North 9.7 mph /  15.6 km/h 11.3 mph /  18.2 km/h 72 % 0.0 in /  0 mm
07:52 0.7 °F /  -17.4 °C -4.0 °F /  -20 °C 1034.4 in /  35024.8 hPa NE 3.2 mph /  5.1 km/h 12.9 mph /  20.8 km/h 71 % 0.0 in /  0 mm
08:02 0.9 °F /  -17.3 °C -4.0 °F /  -20 °C 1034.4 in /  35024.8 hPa NE 11.3 mph /  18.2 km/h 11.3 mph /  18.2 km/h 70 % 0.0 in /  0 mm
08:07 1.2 °F /  -17.1 °C -3.9 °F /  -19.9 °C 1034.8 in /  35038.3 hPa NE 9.7 mph /  15.6 km/h 17.7 mph /  28.5 km/h 69 % 0.0 in /  0 mm
08:12 1.4 °F /  -17 °C -3.9 °F /  -19.9 °C 1034.8 in /  35038.3 hPa NE 12.9 mph /  20.8 km/h 17.7 mph /  28.5 km/h 68 % 0.0 in /  0 mm
08:17 1.6 °F /  -16.9 °C -3.9 °F /  -19.9 °C 1034.8 in /  35038.3 hPa NE 12.9 mph /  20.8 km/h 17.7 mph /  28.5 km/h 67 % 0.0 in /  0 mm
08:22 1.8 °F /  -16.8 °C -3.9 °F /  -19.9 °C 1034.8 in /  35038.3 hPa NE 11.3 mph /  18.2 km/h 17.7 mph /  28.5 km/h 66 % 0.0 in /  0 mm
08:32 2.0 °F /  -16.7 °C -3.9 °F /  -19.9 °C 1034.8 in /  35038.3 hPa North 9.7 mph /  15.6 km/h 19.3 mph /  31.1 km/h 65 % 0.0 in /  0 mm
08:42 2.3 °F /  -16.5 °C -3.8 °F /  -19.9 °C 1035.1 in /  35048.5 hPa NNE 6.4 mph /  10.3 km/h 19.3 mph /  31.1 km/h 64 % 0.0 in /  0 mm
08:52 2.6 °F /  -16.3 °C -3.5 °F /  -19.7 °C 1035.1 in /  35048.5 hPa East 8.0 mph /  12.9 km/h 19.3 mph /  31.1 km/h 64 % 0.0 in /  0 mm
09:02 2.7 °F /  -16.3 °C -3.4 °F /  -19.7 °C 1035.1 in /  35048.5 hPa NNE 9.7 mph /  15.6 km/h 20.9 mph /  33.6 km/h 64 % 0.0 in /  0 mm
09:12 2.8 °F /  -16.2 °C -3.5 °F /  -19.7 °C 1035.1 in /  35048.5 hPa NE 8.0 mph /  12.9 km/h 20.9 mph /  33.6 km/h 63 % 0.0 in /  0 mm
09:17 2.9 °F /  -16.2 °C -3.2 °F /  -19.6 °C 1035.4 in /  35058.6 hPa NE 6.4 mph /  10.3 km/h 20.9 mph /  33.6 km/h 64 % 0.0 in /  0 mm
09:22 3.1 °F /  -16.1 °C -3.3 °F /  -19.6 °C 1035.4 in /  35058.6 hPa East 8.0 mph /  12.9 km/h 20.9 mph /  33.6 km/h 63 % 0.0 in /  0 mm
09:32 3.3 °F /  -15.9 °C -3.1 °F /  -19.5 °C 1035.4 in /  35058.6 hPa NE 19.3 mph /  31.1 km/h 20.9 mph /  33.6 km/h 63 % 0.0 in /  0 mm
09:37 3.4 °F /  -15.9 °C -3.0 °F /  -19.4 °C 1035.1 in /  35048.5 hPa NE 11.3 mph /  18.2 km/h 27.4 mph /  44.1 km/h 63 % 0.0 in /  0 mm
09:42 3.4 °F /  -15.9 °C -3.0 °F /  -19.4 °C 1035.1 in /  35048.5 hPa NNE 11.3 mph /  18.2 km/h 27.4 mph /  44.1 km/h 63 % 0.0 in /  0 mm
09:47 3.6 °F /  -15.8 °C -2.6 °F /  -19.2 °C 1035.1 in /  35048.5 hPa NE 8.0 mph /  12.9 km/h 22.5 mph /  36.2 km/h 64 % 0.0 in /  0 mm
09:52 3.8 °F /  -15.7 °C -2.8 °F /  -19.3 °C 1035.1 in /  35048.5 hPa NE 12.9 mph /  20.8 km/h 22.5 mph /  36.2 km/h 62 % 0.0 in /  0 mm
10:02 4.3 °F /  -15.4 °C -3.0 °F /  -19.4 °C 1035.1 in /  35048.5 hPa NNE 17.7 mph /  28.5 km/h 22.5 mph /  36.2 km/h 59 % 0.0 in /  0 mm
10:12 4.5 °F /  -15.3 °C -3.5 °F /  -19.7 °C 1035.1 in /  35048.5 hPa NE 9.7 mph /  15.6 km/h 25.7 mph /  41.4 km/h 56 % 0.0 in /  0 mm
10:17 4.8 °F /  -15.1 °C -3.2 °F /  -19.6 °C 1035.1 in /  35048.5 hPa East 14.5 mph /  23.3 km/h 30.6 mph /  49.2 km/h 56 % 0.0 in /  0 mm
10:22 5.0 °F /  -15 °C -3.1 °F /  -19.5 °C 1035.1 in /  35048.5 hPa ENE 16.1 mph /  25.9 km/h 30.6 mph /  49.2 km/h 56 % 0.0 in /  0 mm
10:32 5.4 °F /  -14.8 °C -3.9 °F /  -19.9 °C 1035.1 in /  35048.5 hPa ENE 24.1 mph /  38.8 km/h 29.0 mph /  46.7 km/h 51 % 0.0 in /  0 mm
10:42 5.4 °F /  -14.8 °C -3.7 °F /  -19.8 °C 1035.1 in /  35048.5 hPa East 19.3 mph /  31.1 km/h 32.2 mph /  51.8 km/h 52 % 0.0 in /  0 mm
10:52 5.8 °F /  -14.6 °C -3.8 °F /  -19.9 °C 1034.8 in /  35038.3 hPa ENE 22.5 mph /  36.2 km/h 32.2 mph /  51.8 km/h 50 % 0.0 in /  0 mm
10:57 5.8 °F /  -14.6 °C -4.1 °F /  -20.1 °C 1035.1 in /  35048.5 hPa NE 9.7 mph /  15.6 km/h 33.8 mph /  54.4 km/h 49 % 0.0 in /  0 mm
11:02 6.1 °F /  -14.4 °C -4.4 °F /  -20.2 °C 1035.1 in /  35048.5 hPa ENE 14.5 mph /  23.3 km/h 33.8 mph /  54.4 km/h 47 % 0.0 in /  0 mm
11:12 6.3 °F /  -14.3 °C -4.8 °F /  -20.4 °C 1035.1 in /  35048.5 hPa NNE 30.6 mph /  49.2 km/h 37.0 mph /  59.5 km/h 45 % 0.0 in /  0 mm
11:17 6.5 °F /  -14.2 °C -4.6 °F /  -20.3 °C 1034.8 in /  35038.3 hPa NE 20.9 mph /  33.6 km/h 37.0 mph /  59.5 km/h 45 % 0.0 in /  0 mm
11:22 6.6 °F /  -14.1 °C -4.8 °F /  -20.4 °C 1035.1 in /  35048.5 hPa ENE 19.3 mph /  31.1 km/h 37.0 mph /  59.5 km/h 44 % 0.0 in /  0 mm
11:32 7.1 °F /  -13.8 °C -5.0 °F /  -20.6 °C 1034.8 in /  35038.3 hPa NE 19.3 mph /  31.1 km/h 35.4 mph /  57 km/h 42 % 0.0 in /  0 mm
11:42 6.9 °F /  -13.9 °C -5.1 °F /  -20.6 °C 1035.1 in /  35048.5 hPa NE 32.2 mph /  51.8 km/h 32.2 mph /  51.8 km/h 42 % 0.0 in /  0 mm
11:47 7.0 °F /  -13.9 °C -4.4 °F /  -20.2 °C 1035.1 in /  35048.5 hPa ENE 12.9 mph /  20.8 km/h 37.0 mph /  59.5 km/h 44 % 0.0 in /  0 mm
11:52 7.1 °F /  -13.8 °C -5.3 °F /  -20.7 °C 1035.1 in /  35048.5 hPa NE 20.9 mph /  33.6 km/h 37.0 mph /  59.5 km/h 41 % 0.0 in /  0 mm
12:02 7.2 °F /  -13.8 °C -5.2 °F /  -20.7 °C 1034.8 in /  35038.3 hPa NE 12.9 mph /  20.8 km/h 35.4 mph /  57 km/h 41 % 0.0 in /  0 mm
12:12 7.6 °F /  -13.6 °C -4.8 °F /  -20.4 °C 1034.8 in /  35038.3 hPa ENE 22.5 mph /  36.2 km/h 33.8 mph /  54.4 km/h 41 % 0.0 in /  0 mm
12:17 7.8 °F /  -13.4 °C -4.6 °F /  -20.3 °C 1034.8 in /  35038.3 hPa East 12.9 mph /  20.8 km/h 32.2 mph /  51.8 km/h 41 % 0.0 in /  0 mm
12:22 7.9 °F /  -13.4 °C -4.5 °F /  -20.3 °C 1034.8 in /  35038.3 hPa NE 20.9 mph /  33.6 km/h 32.2 mph /  51.8 km/h 41 % 0.0 in /  0 mm
12:32 8.2 °F /  -13.2 °C -4.6 °F /  -20.3 °C 1034.8 in /  35038.3 hPa ENE 30.6 mph /  49.2 km/h 32.2 mph /  51.8 km/h 40 % 0.0 in /  0 mm
12:42 8.4 °F /  -13.1 °C -4.1 °F /  -20.1 °C 1034.8 in /  35038.3 hPa NE 8.0 mph /  12.9 km/h 35.4 mph /  57 km/h 41 % 0.0 in /  0 mm
12:47 8.7 °F /  -12.9 °C -4.2 °F /  -20.1 °C 1034.4 in /  35024.8 hPa NNW 14.5 mph /  23.3 km/h 35.4 mph /  57 km/h 40 % 0.0 in /  0 mm
12:52 8.6 °F /  -13 °C -4.6 °F /  -20.3 °C 1034.4 in /  35024.8 hPa NE 19.3 mph /  31.1 km/h 35.4 mph /  57 km/h 39 % 0.0 in /  0 mm
13:02 8.8 °F /  -12.9 °C -5.1 °F /  -20.6 °C 1034.4 in /  35024.8 hPa NNE 25.7 mph /  41.4 km/h 29.0 mph /  46.7 km/h 37 % 0.0 in /  0 mm
13:07 8.9 °F /  -12.8 °C -3.6 °F /  -19.8 °C 1034.4 in /  35024.8 hPa NNE 25.7 mph /  41.4 km/h 29.0 mph /  46.7 km/h 41 % 0.0 in /  0 mm
13:12 8.7 °F /  -12.9 °C -4.2 °F /  -20.1 °C 1034.4 in /  35024.8 hPa NNE 12.9 mph /  20.8 km/h 29.0 mph /  46.7 km/h 40 % 0.0 in /  0 mm
13:17 8.9 °F /  -12.8 °C -4.0 °F /  -20 °C 1034.4 in /  35024.8 hPa ENE 11.3 mph /  18.2 km/h 37.0 mph /  59.5 km/h 40 % 0.0 in /  0 mm
13:22 9.1 °F /  -12.7 °C -3.8 °F /  -19.9 °C 1034.4 in /  35024.8 hPa NE 20.9 mph /  33.6 km/h 37.0 mph /  59.5 km/h 40 % 0.0 in /  0 mm
13:32 9.2 °F /  -12.7 °C -4.0 °F /  -20 °C 1034.4 in /  35024.8 hPa NNE 14.5 mph /  23.3 km/h 30.6 mph /  49.2 km/h 39 % 0.0 in /  0 mm
13:37 9.3 °F /  -12.6 °C -4.3 °F /  -20.2 °C 1034.4 in /  35024.8 hPa ENE 17.7 mph /  28.5 km/h 32.2 mph /  51.8 km/h 38 % 0.0 in /  0 mm
13:42 9.5 °F /  -12.5 °C -3.8 °F /  -19.9 °C 1034.1 in /  35014.6 hPa NNE 17.7 mph /  28.5 km/h 32.2 mph /  51.8 km/h 39 % 0.0 in /  0 mm
13:47 9.7 °F /  -12.4 °C -3.3 °F /  -19.6 °C 1034.1 in /  35014.6 hPa NE 17.7 mph /  28.5 km/h 32.2 mph /  51.8 km/h 40 % 0.0 in /  0 mm
13:52 9.5 °F /  -12.5 °C -3.8 °F /  -19.9 °C 1034.1 in /  35014.6 hPa NNE 32.2 mph /  51.8 km/h 32.2 mph /  51.8 km/h 39 % 0.0 in /  0 mm
14:02 9.9 °F /  -12.3 °C -2.4 °F /  -19.1 °C 1034.1 in /  35014.6 hPa NNE 14.5 mph /  23.3 km/h 32.2 mph /  51.8 km/h 42 % 0.0 in /  0 mm
14:07 9.9 °F /  -12.3 °C -2.4 °F /  -19.1 °C 1034.1 in /  35014.6 hPa NNE 11.3 mph /  18.2 km/h 33.8 mph /  54.4 km/h 42 % 0.0 in /  0 mm
14:12 10.1 °F /  -12.2 °C -2.2 °F /  -19 °C 1034.1 in /  35014.6 hPa NNE 14.5 mph /  23.3 km/h 33.8 mph /  54.4 km/h 42 % 0.0 in /  0 mm
14:17 9.9 °F /  -12.3 °C -2.4 °F /  -19.1 °C 1034.1 in /  35014.6 hPa NE 14.5 mph /  23.3 km/h 27.4 mph /  44.1 km/h 42 % 0.0 in /  0 mm
14:22 9.9 °F /  -12.3 °C -2.7 °F /  -19.3 °C 1034.1 in /  35014.6 hPa NNE 17.7 mph /  28.5 km/h 27.4 mph /  44.1 km/h 41 % 0.0 in /  0 mm
14:27 10.1 °F /  -12.2 °C -2.6 °F /  -19.2 °C 1034.1 in /  35014.6 hPa NE 9.7 mph /  15.6 km/h 37.0 mph /  59.5 km/h 41 % 0.0 in /  0 mm
14:32 10.2 °F /  -12.1 °C -2.5 °F /  -19.2 °C 1034.1 in /  35014.6 hPa NE 14.5 mph /  23.3 km/h 37.0 mph /  59.5 km/h 41 % 0.0 in /  0 mm
14:37 9.9 °F /  -12.3 °C -2.7 °F /  -19.3 °C 1034.1 in /  35014.6 hPa NNE 19.3 mph /  31.1 km/h 29.0 mph /  46.7 km/h 41 % 0.0 in /  0 mm
14:42 10.3 °F /  -12.1 °C -1.7 °F /  -18.7 °C 1034.1 in /  35014.6 hPa North 9.7 mph /  15.6 km/h 29.0 mph /  46.7 km/h 43 % 0.0 in /  0 mm
14:47 10.4 °F /  -12 °C -2.3 °F /  -19.1 °C 1034.1 in /  35014.6 hPa NNE 29.0 mph /  46.7 km/h 30.6 mph /  49.2 km/h 41 % 0.0 in /  0 mm
14:52 10.3 °F /  -12.1 °C -2.7 °F /  -19.3 °C 1034.1 in /  35014.6 hPa ENE 9.7 mph /  15.6 km/h 30.6 mph /  49.2 km/h 40 % 0.0 in /  0 mm
14:57 10.6 °F /  -11.9 °C -1.5 °F /  -18.6 °C 1034.1 in /  35014.6 hPa ENE 14.5 mph /  23.3 km/h 30.6 mph /  49.2 km/h 43 % 0.0 in /  0 mm
15:02 10.5 °F /  -11.9 °C -2.2 °F /  -19 °C 1034.1 in /  35014.6 hPa NNE 12.9 mph /  20.8 km/h 30.6 mph /  49.2 km/h 41 % 0.0 in /  0 mm
15:07 10.4 °F /  -12 °C -2.3 °F /  -19.1 °C 1033.7 in /  35001.1 hPa NE 17.7 mph /  28.5 km/h 29.0 mph /  46.7 km/h 41 % 0.0 in /  0 mm
15:12 10.3 °F /  -12.1 °C -2.4 °F /  -19.1 °C 1033.7 in /  35001.1 hPa NNE 20.9 mph /  33.6 km/h 29.0 mph /  46.7 km/h 41 % 0.0 in /  0 mm
15:17 10.5 °F /  -11.9 °C -2.2 °F /  -19 °C 1033.7 in /  35001.1 hPa NNW 16.1 mph /  25.9 km/h 29.0 mph /  46.7 km/h 41 % 0.0 in /  0 mm
15:22 10.6 °F /  -11.9 °C -1.8 °F /  -18.8 °C 1033.7 in /  35001.1 hPa NNE 14.5 mph /  23.3 km/h 29.0 mph /  46.7 km/h 42 % 0.0 in /  0 mm
15:27 10.6 °F /  -11.9 °C -2.1 °F /  -18.9 °C 1033.7 in /  35001.1 hPa NE 12.9 mph /  20.8 km/h 29.0 mph /  46.7 km/h 41 % 0.0 in /  0 mm
15:32 10.8 °F /  -11.8 °C -1.6 °F /  -18.7 °C 1033.7 in /  35001.1 hPa NNE 24.1 mph /  38.8 km/h 29.0 mph /  46.7 km/h 42 % 0.0 in /  0 mm
15:37 10.7 °F /  -11.8 °C -2.7 °F /  -19.3 °C 1033.7 in /  35001.1 hPa NE 16.1 mph /  25.9 km/h 30.6 mph /  49.2 km/h 39 % 0.0 in /  0 mm
15:42 10.9 °F /  -11.7 °C -1.5 °F /  -18.6 °C 1033.4 in /  34990.9 hPa NNE 3.2 mph /  5.1 km/h 30.6 mph /  49.2 km/h 42 % 0.0 in /  0 mm
15:47 10.9 °F /  -11.7 °C -2.9 °F /  -19.4 °C 1033.4 in /  34990.9 hPa NE 19.3 mph /  31.1 km/h 30.6 mph /  49.2 km/h 38 % 0.0 in /  0 mm
15:52 11.0 °F /  -11.7 °C -2.4 °F /  -19.1 °C 1033.4 in /  34990.9 hPa NE 19.3 mph /  31.1 km/h 30.6 mph /  49.2 km/h 39 % 0.0 in /  0 mm
15:57 11.2 °F /  -11.6 °C -2.3 °F /  -19.1 °C 1033.4 in /  34990.9 hPa NE 9.7 mph /  15.6 km/h 29.0 mph /  46.7 km/h 39 % 0.0 in /  0 mm
16:02 11.2 °F /  -11.6 °C -2.6 °F /  -19.2 °C 1033.4 in /  34990.9 hPa NNW 16.1 mph /  25.9 km/h 29.0 mph /  46.7 km/h 38 % 0.0 in /  0 mm
16:07 11.0 °F /  -11.7 °C -1.8 °F /  -18.8 °C 1033.4 in /  34990.9 hPa North 11.3 mph /  18.2 km/h 33.8 mph /  54.4 km/h 41 % 0.0 in /  0 mm
16:12 10.9 °F /  -11.7 °C -1.5 °F /  -18.6 °C 1033.1 in /  34980.8 hPa NNE 6.4 mph /  10.3 km/h 33.8 mph /  54.4 km/h 42 % 0.0 in /  0 mm
16:17 11.0 °F /  -11.7 °C -2.8 °F /  -19.3 °C 1033.4 in /  34990.9 hPa NE 22.5 mph /  36.2 km/h 33.8 mph /  54.4 km/h 38 % 0.0 in /  0 mm
16:22 10.9 °F /  -11.7 °C -2.2 °F /  -19 °C 1033.4 in /  34990.9 hPa ENE 9.7 mph /  15.6 km/h 33.8 mph /  54.4 km/h 40 % 0.0 in /  0 mm
16:27 11.1 °F /  -11.6 °C -3.4 °F /  -19.7 °C 1033.1 in /  34980.8 hPa NE 9.7 mph /  15.6 km/h 33.8 mph /  54.4 km/h 36 % 0.0 in /  0 mm
16:37 11.4 °F /  -11.4 °C -2.8 °F /  -19.3 °C 1033.1 in /  34980.8 hPa North 22.5 mph /  36.2 km/h 32.2 mph /  51.8 km/h 37 % 0.0 in /  0 mm
16:42 11.0 °F /  -11.7 °C -2.8 °F /  -19.3 °C 1033.1 in /  34980.8 hPa NE 19.3 mph /  31.1 km/h 32.2 mph /  51.8 km/h 38 % 0.0 in /  0 mm
16:47 11.3 °F /  -11.5 °C -2.9 °F /  -19.4 °C 1033.1 in /  34980.8 hPa NNE 24.1 mph /  38.8 km/h 32.2 mph /  51.8 km/h 37 % 0.0 in /  0 mm
16:52 11.2 °F /  -11.6 °C -3.3 °F /  -19.6 °C 1033.1 in /  34980.8 hPa NE 22.5 mph /  36.2 km/h 32.2 mph /  51.8 km/h 36 % 0.0 in /  0 mm
16:57 11.3 °F /  -11.5 °C -3.2 °F /  -19.6 °C 1033.1 in /  34980.8 hPa NE 12.9 mph /  20.8 km/h 29.0 mph /  46.7 km/h 36 % 0.0 in /  0 mm
17:02 11.5 °F /  -11.4 °C -2.7 °F /  -19.3 °C 1033.1 in /  34980.8 hPa NNE 14.5 mph /  23.3 km/h 29.0 mph /  46.7 km/h 37 % 0.0 in /  0 mm
17:07 11.4 °F /  -11.4 °C -2.8 °F /  -19.3 °C 1033.1 in /  34980.8 hPa NE 9.7 mph /  15.6 km/h 25.7 mph /  41.4 km/h 37 % 0.0 in /  0 mm
17:17 11.5 °F /  -11.4 °C -2.7 °F /  -19.3 °C 1032.7 in /  34967.2 hPa NE 19.3 mph /  31.1 km/h 25.7 mph /  41.4 km/h 37 % 0.0 in /  0 mm
17:22 11.6 °F /  -11.3 °C -2.6 °F /  -19.2 °C 1032.7 in /  34967.2 hPa ENE 8.0 mph /  12.9 km/h 25.7 mph /  41.4 km/h 37 % 0.0 in /  0 mm
17:27 11.6 °F /  -11.3 °C -3.0 °F /  -19.4 °C 1032.7 in /  34967.2 hPa NE 20.9 mph /  33.6 km/h 24.1 mph /  38.8 km/h 36 % 0.0 in /  0 mm
17:32 11.4 °F /  -11.4 °C -3.2 °F /  -19.6 °C 1032.7 in /  34967.2 hPa NNE 19.3 mph /  31.1 km/h 24.1 mph /  38.8 km/h 36 % 0.0 in /  0 mm
17:37 11.6 °F /  -11.3 °C -1.9 °F /  -18.8 °C 1032.7 in /  34967.2 hPa NE 16.1 mph /  25.9 km/h 25.7 mph /  41.4 km/h 39 % 0.0 in /  0 mm
17:42 11.6 °F /  -11.3 °C -3.0 °F /  -19.4 °C 1032.7 in /  34967.2 hPa ENE 11.3 mph /  18.2 km/h 25.7 mph /  41.4 km/h 36 % 0.0 in /  0 mm
17:47 11.3 °F /  -11.5 °C -3.2 °F /  -19.6 °C 1032.7 in /  34967.2 hPa ENE 9.7 mph /  15.6 km/h 25.7 mph /  41.4 km/h 36 % 0.0 in /  0 mm
17:52 11.3 °F /  -11.5 °C -3.2 °F /  -19.6 °C 1032.7 in /  34967.2 hPa NE 16.1 mph /  25.9 km/h 25.7 mph /  41.4 km/h 36 % 0.0 in /  0 mm
17:57 11.5 °F /  -11.4 °C -3.1 °F /  -19.5 °C 1032.7 in /  34967.2 hPa ENE 11.3 mph /  18.2 km/h 25.7 mph /  41.4 km/h 36 % 0.0 in /  0 mm
18:02 11.4 °F /  -11.4 °C -3.5 °F /  -19.7 °C 1032.7 in /  34967.2 hPa NE 14.5 mph /  23.3 km/h 25.7 mph /  41.4 km/h 35 % 0.0 in /  0 mm
18:07 11.4 °F /  -11.4 °C -2.8 °F /  -19.3 °C 1032.7 in /  34967.2 hPa NNE 22.5 mph /  36.2 km/h 27.4 mph /  44.1 km/h 37 % 0.0 in /  0 mm
18:12 11.4 °F /  -11.4 °C -3.2 °F /  -19.6 °C 1032.7 in /  34967.2 hPa NE 8.0 mph /  12.9 km/h 27.4 mph /  44.1 km/h 36 % 0.0 in /  0 mm
18:17 11.4 °F /  -11.4 °C -2.8 °F /  -19.3 °C 1032.7 in /  34967.2 hPa NNE 8.0 mph /  12.9 km/h 27.4 mph /  44.1 km/h 37 % 0.0 in /  0 mm
18:22 11.4 °F /  -11.4 °C -3.2 °F /  -19.6 °C 1032.7 in /  34967.2 hPa East 14.5 mph /  23.3 km/h 24.1 mph /  38.8 km/h 36 % 0.0 in /  0 mm
18:27 11.3 °F /  -11.5 °C -3.2 °F /  -19.6 °C 1032.7 in /  34967.2 hPa ENE 11.3 mph /  18.2 km/h 24.1 mph /  38.8 km/h 36 % 0.0 in /  0 mm
18:32 11.3 °F /  -11.5 °C -3.2 °F /  -19.6 °C 1032.7 in /  34967.2 hPa ESE 12.9 mph /  20.8 km/h 29.0 mph /  46.7 km/h 36 % 0.0 in /  0 mm
18:37 11.3 °F /  -11.5 °C -2.5 °F /  -19.2 °C 1032.7 in /  34967.2 hPa NNE 17.7 mph /  28.5 km/h 29.0 mph /  46.7 km/h 38 % 0.0 in /  0 mm
18:42 11.3 °F /  -11.5 °C -2.5 °F /  -19.2 °C 1032.7 in /  34967.2 hPa NE 6.4 mph /  10.3 km/h 27.4 mph /  44.1 km/h 38 % 0.0 in /  0 mm
18:47 11.4 °F /  -11.4 °C -2.8 °F /  -19.3 °C 1032.7 in /  34967.2 hPa ENE 17.7 mph /  28.5 km/h 22.5 mph /  36.2 km/h 37 % 0.0 in /  0 mm
18:52 11.3 °F /  -11.5 °C -2.9 °F /  -19.4 °C 1032.7 in /  34967.2 hPa NNE 8.0 mph /  12.9 km/h 22.5 mph /  36.2 km/h 37 % 0.0 in /  0 mm
18:57 11.1 °F /  -11.6 °C -3.0 °F /  -19.4 °C 1032.7 in /  34967.2 hPa ENE 14.5 mph /  23.3 km/h 22.5 mph /  36.2 km/h 37 % 0.0 in /  0 mm
19:07 11.1 °F /  -11.6 °C -2.3 °F /  -19.1 °C 1032.7 in /  34967.2 hPa NE 16.1 mph /  25.9 km/h 24.1 mph /  38.8 km/h 39 % 0.0 in /  0 mm
19:12 11.0 °F /  -11.7 °C -2.4 °F /  -19.1 °C 1032.7 in /  34967.2 hPa NE 16.1 mph /  25.9 km/h 24.1 mph /  38.8 km/h 39 % 0.0 in /  0 mm
19:17 10.8 °F /  -11.8 °C -2.6 °F /  -19.2 °C 1032.7 in /  34967.2 hPa NE 11.3 mph /  18.2 km/h 27.4 mph /  44.1 km/h 39 % 0.0 in /  0 mm
19:22 10.8 °F /  -11.8 °C -2.6 °F /  -19.2 °C 1032.4 in /  34957.1 hPa ENE 8.0 mph /  12.9 km/h 27.4 mph /  44.1 km/h 39 % 0.0 in /  0 mm
19:27 10.8 °F /  -11.8 °C -2.3 °F /  -19.1 °C 1032.7 in /  34967.2 hPa NNE 19.3 mph /  31.1 km/h 25.7 mph /  41.4 km/h 40 % 0.0 in /  0 mm
19:32 10.7 °F /  -11.8 °C -2.7 °F /  -19.3 °C 1032.4 in /  34957.1 hPa NE 12.9 mph /  20.8 km/h 25.7 mph /  41.4 km/h 39 % 0.0 in /  0 mm
19:37 10.6 °F /  -11.9 °C -2.4 °F /  -19.1 °C 1032.4 in /  34957.1 hPa NE 8.0 mph /  12.9 km/h 25.7 mph /  41.4 km/h 40 % 0.0 in /  0 mm
19:42 10.6 °F /  -11.9 °C -2.4 °F /  -19.1 °C 1032.4 in /  34957.1 hPa NNE 12.9 mph /  20.8 km/h 25.7 mph /  41.4 km/h 40 % 0.0 in /  0 mm
19:47 10.5 °F /  -11.9 °C -2.9 °F /  -19.4 °C 1032.4 in /  34957.1 hPa NE 11.3 mph /  18.2 km/h 20.9 mph /  33.6 km/h 39 % 0.0 in /  0 mm
19:52 10.6 °F /  -11.9 °C -2.8 °F /  -19.3 °C 1032.4 in /  34957.1 hPa NE 9.7 mph /  15.6 km/h 20.9 mph /  33.6 km/h 39 % 0.0 in /  0 mm
19:57 10.4 °F /  -12 °C -2.3 °F /  -19.1 °C 1032.4 in /  34957.1 hPa NNE 12.9 mph /  20.8 km/h 25.7 mph /  41.4 km/h 41 % 0.0 in /  0 mm
20:02 10.3 °F /  -12.1 °C -2.7 °F /  -19.3 °C 1032.4 in /  34957.1 hPa NE 16.1 mph /  25.9 km/h 25.7 mph /  41.4 km/h 40 % 0.0 in /  0 mm
20:07 10.3 °F /  -12.1 °C -2.7 °F /  -19.3 °C 1032.4 in /  34957.1 hPa NE 19.3 mph /  31.1 km/h 22.5 mph /  36.2 km/h 40 % 0.0 in /  0 mm
20:12 10.2 °F /  -12.1 °C -2.5 °F /  -19.2 °C 1032.4 in /  34957.1 hPa NNE 11.3 mph /  18.2 km/h 22.5 mph /  36.2 km/h 41 % 0.0 in /  0 mm
20:17 10.0 °F /  -12.2 °C -2.7 °F /  -19.3 °C 1032.4 in /  34957.1 hPa NNE 9.7 mph /  15.6 km/h 22.5 mph /  36.2 km/h 41 % 0.0 in /  0 mm
20:22 9.8 °F /  -12.3 °C -2.5 °F /  -19.2 °C 1032.4 in /  34957.1 hPa NE 17.7 mph /  28.5 km/h 22.5 mph /  36.2 km/h 42 % 0.0 in /  0 mm
20:32 9.5 °F /  -12.5 °C -2.5 °F /  -19.2 °C 1032.4 in /  34957.1 hPa NE 11.3 mph /  18.2 km/h 19.3 mph /  31.1 km/h 43 % 0.0 in /  0 mm
20:37 9.2 °F /  -12.7 °C -2.7 °F /  -19.3 °C 1032.7 in /  34967.2 hPa NNE 14.5 mph /  23.3 km/h 19.3 mph /  31.1 km/h 43 % 0.0 in /  0 mm
20:42 9.1 °F /  -12.7 °C -2.5 °F /  -19.2 °C 1032.7 in /  34967.2 hPa NNE 4.8 mph /  7.7 km/h 19.3 mph /  31.1 km/h 44 % 0.0 in /  0 mm
20:47 8.9 °F /  -12.8 °C -2.4 °F /  -19.1 °C 1032.7 in /  34967.2 hPa NNE 1.6 mph /  2.6 km/h 17.7 mph /  28.5 km/h 45 % 0.0 in /  0 mm
20:57 8.6 °F /  -13 °C -2.4 °F /  -19.1 °C 1032.7 in /  34967.2 hPa NNE 8.0 mph /  12.9 km/h 9.7 mph /  15.6 km/h 46 % 0.0 in /  0 mm
21:02 8.3 °F /  -13.2 °C -2.4 °F /  -19.1 °C 1032.7 in /  34967.2 hPa North 4.8 mph /  7.7 km/h 9.7 mph /  15.6 km/h 47 % 0.0 in /  0 mm
21:07 8.1 °F /  -13.3 °C -2.3 °F /  -19.1 °C 1032.7 in /  34967.2 hPa NNE 1.6 mph /  2.6 km/h 11.3 mph /  18.2 km/h 48 % 0.0 in /  0 mm
21:12 7.8 °F /  -13.4 °C -2.5 °F /  -19.2 °C 1032.7 in /  34967.2 hPa Calm   11.3 mph /  18.2 km/h 48 % 0.0 in /  0 mm
21:17 7.6 °F /  -13.6 °C -2.4 °F /  -19.1 °C 1032.7 in /  34967.2 hPa NE 1.6 mph /  2.6 km/h 11.3 mph /  18.2 km/h 49 % 0.0 in /  0 mm
21:22 7.4 °F /  -13.7 °C -2.3 °F /  -19.1 °C 1032.7 in /  34967.2 hPa NNE 1.6 mph /  2.6 km/h 11.3 mph /  18.2 km/h 50 % 0.0 in /  0 mm
21:27 7.3 °F /  -13.7 °C -2.4 °F /  -19.1 °C 1032.7 in /  34967.2 hPa Calm   9.7 mph /  15.6 km/h 50 % 0.0 in /  0 mm
21:32 7.1 °F /  -13.8 °C -2.4 °F /  -19.1 °C 1032.7 in /  34967.2 hPa Calm   9.7 mph /  15.6 km/h 51 % 0.0 in /  0 mm
21:37 7.1 °F /  -13.8 °C -2.4 °F /  -19.1 °C 1032.7 in /  34967.2 hPa North 1.6 mph /  2.6 km/h 6.4 mph /  10.3 km/h 51 % 0.0 in /  0 mm
21:42 6.9 °F /  -13.9 °C -2.3 °F /  -19.1 °C 1032.7 in /  34967.2 hPa NNE 4.8 mph /  7.7 km/h 6.4 mph /  10.3 km/h 52 % 0.0 in /  0 mm
21:47 6.9 °F /  -13.9 °C -2.3 °F /  -19.1 °C 1032.7 in /  34967.2 hPa Calm   11.3 mph /  18.2 km/h 52 % 0.0 in /  0 mm
21:52 7.0 °F /  -13.9 °C -2.2 °F /  -19 °C 1033.1 in /  34980.8 hPa NE 3.2 mph /  5.1 km/h 11.3 mph /  18.2 km/h 52 % 0.0 in /  0 mm
22:02 7.1 °F /  -13.8 °C -2.1 °F /  -18.9 °C 1033.1 in /  34980.8 hPa NE 4.8 mph /  7.7 km/h 17.7 mph /  28.5 km/h 52 % 0.0 in /  0 mm
22:07 7.0 °F /  -13.9 °C -2.2 °F /  -19 °C 1032.7 in /  34967.2 hPa NE 6.4 mph /  10.3 km/h 14.5 mph /  23.3 km/h 52 % 0.0 in /  0 mm
22:12 6.9 °F /  -13.9 °C -2.3 °F /  -19.1 °C 1032.7 in /  34967.2 hPa NNE 4.8 mph /  7.7 km/h 14.5 mph /  23.3 km/h 52 % 0.0 in /  0 mm
22:17 7.1 °F /  -13.8 °C -2.1 °F /  -18.9 °C 1032.7 in /  34967.2 hPa NE 3.2 mph /  5.1 km/h 19.3 mph /  31.1 km/h 52 % 0.0 in /  0 mm
22:22 7.2 °F /  -13.8 °C -2.3 °F /  -19.1 °C 1033.1 in /  34980.8 hPa NE 6.4 mph /  10.3 km/h 19.3 mph /  31.1 km/h 51 % 0.0 in /  0 mm
22:27 7.2 °F /  -13.8 °C -2.3 °F /  -19.1 °C 1033.1 in /  34980.8 hPa NE 12.9 mph /  20.8 km/h 19.3 mph /  31.1 km/h 51 % 0.0 in /  0 mm
22:32 7.4 °F /  -13.7 °C -2.1 °F /  -18.9 °C 1033.1 in /  34980.8 hPa NE 12.9 mph /  20.8 km/h 19.3 mph /  31.1 km/h 51 % 0.0 in /  0 mm
22:37 7.5 °F /  -13.6 °C -2.3 °F /  -19.1 °C 1033.1 in /  34980.8 hPa NNE 14.5 mph /  23.3 km/h 22.5 mph /  36.2 km/h 50 % 0.0 in /  0 mm
22:42 7.4 °F /  -13.7 °C -2.3 °F /  -19.1 °C 1033.1 in /  34980.8 hPa NNE 4.8 mph /  7.7 km/h 22.5 mph /  36.2 km/h 50 % 0.0 in /  0 mm
22:47 7.1 °F /  -13.8 °C -2.1 °F /  -18.9 °C 1033.1 in /  34980.8 hPa NNE 4.8 mph /  7.7 km/h 22.5 mph /  36.2 km/h 52 % 0.0 in /  0 mm
22:52 6.9 °F /  -13.9 °C -2.0 °F /  -18.9 °C 1033.1 in /  34980.8 hPa North 3.2 mph /  5.1 km/h 22.5 mph /  36.2 km/h 53 % 0.0 in /  0 mm
22:57 6.8 °F /  -14 °C -2.1 °F /  -18.9 °C 1033.1 in /  34980.8 hPa NE 8.0 mph /  12.9 km/h 17.7 mph /  28.5 km/h 53 % 0.0 in /  0 mm
23:02 6.7 °F /  -14.1 °C -2.2 °F /  -19 °C 1033.1 in /  34980.8 hPa NE 4.8 mph /  7.7 km/h 17.7 mph /  28.5 km/h 53 % 0.0 in /  0 mm
23:07 6.7 °F /  -14.1 °C -2.5 °F /  -19.2 °C 1033.1 in /  34980.8 hPa North 9.7 mph /  15.6 km/h 20.9 mph /  33.6 km/h 52 % 0.0 in /  0 mm
23:12 6.8 °F /  -14 °C -2.4 °F /  -19.1 °C 1033.1 in /  34980.8 hPa NNE 8.0 mph /  12.9 km/h 20.9 mph /  33.6 km/h 52 % 0.0 in /  0 mm
23:22 6.6 °F /  -14.1 °C -2.3 °F /  -19.1 °C 1033.1 in /  34980.8 hPa NNE 4.8 mph /  7.7 km/h 20.9 mph /  33.6 km/h 53 % 0.0 in /  0 mm
23:32 6.4 °F /  -14.2 °C -2.2 °F /  -19 °C 1033.1 in /  34980.8 hPa NNE 1.6 mph /  2.6 km/h 17.7 mph /  28.5 km/h 54 % 0.0 in /  0 mm
23:37 6.3 °F /  -14.3 °C -2.1 °F /  -18.9 °C 1033.1 in /  34980.8 hPa NE 8.0 mph /  12.9 km/h 11.3 mph /  18.2 km/h 55 % 0.0 in /  0 mm
23:42 6.4 °F /  -14.2 °C -2.2 °F /  -19 °C 1033.1 in /  34980.8 hPa NNE 11.3 mph /  18.2 km/h 11.3 mph /  18.2 km/h 54 % 0.0 in /  0 mm
23:47 6.6 °F /  -14.1 °C -2.0 °F /  -18.9 °C 1033.1 in /  34980.8 hPa North 6.4 mph /  10.3 km/h 19.3 mph /  31.1 km/h 54 % 0.0 in /  0 mm
23:52 6.7 °F /  -14.1 °C -2.2 °F /  -19 °C 1033.1 in /  34980.8 hPa NNE 16.1 mph /  25.9 km/h 19.3 mph /  31.1 km/h 53 % 0.0 in /  0 mm
Meteo18
Compliments of Weather Underground - 4 mb

Script developed by  Jim McMurry - jmcmurry@mwt.net Adapted for the template by  Wim van der Kuil - Leuven-Template.eu

You find our weather info also at:

European Weather Network

Weather Underground

Equipment we use:

Weather-station
Davis Vue

Weather-program
Meteobridge

Weather-server
Raspberry PI 2 B+

Provider
1 and 1

Davis Vue

Meteobridge

Raspberry PI 2 B+

1 and 1